• location
  • image
mod_vvisit_countermod_vvisit_countermod_vvisit_countermod_vvisit_countermod_vvisit_countermod_vvisit_counter
mod_vvisit_counterToday114
mod_vvisit_counterYesterday824
mod_vvisit_counterThis week938
mod_vvisit_counterLast week7375
mod_vvisit_counterThis month20691
mod_vvisit_counterLast month22413
mod_vvisit_counterAll days851332

We have: 68 guests online
Your IP: 54.221.17.234
 , 
Today: Feb 26, 2018
Airport / Company

Company

Municipal company Siauliu oro uostas.

In November 2003, under the decision of Siauliai City Municipality Council, municipal company Siauliu Oro Uostas was set up. Under the resolution of the Lithuanian Government, the company was granted the right to serve civil transport in Siauliai Military Aerodrome.

The company is a limited liability public entity.

The main objective  – to provide public passenger and cargo air transportation services.

The company’s main activities include airport operations and air transport services.

Currently, 21 employees work for the company.

Organisation chart of the company is given below:

 

Today

Monday, 26 February 2018

Aviation Weather Forecast

[source: ADDS]
METAR
EYSA 252320Z AUTO 30004KT 4300NDV BR NSC M20/M22 Q1031 R32R/29//95 R32L/990191 =
TAF
TAF EYSA 252301Z 2600/2609 VRB05KT 7000 BKN025 TEMPO 2600/2603 3000 BR SCT005 TEMPO 2603/2606 3000 SN BR BKN005 =
SR / SS: 05:23 / 15:57 UTC (EYSA 2018-02-26)

Search

Who's Online

We have 68 guests online

tic logo en